Time;durP1;ratioP1;P1;durP2;ratioP2;P2;SDS_P1;SDS_P2;PMS_P1;PMS_P2;Temp;Humidity;BMP_temperature;BMP_pressure;BME280_temperature;BME280_humidity;BME280_pressure;Samples;Min_cycle;Max_cycle;Signal;HPM_P1;HPM_P2
2023/07/01 00:01:27;;;;;;;0.00;0.00;;;;;;;23.29;100.00;100809.63;10403869;28;20064;-84
2023/07/01 00:06:28;;;;;;;0.00;0.00;;;;;;;23.48;100.00;100795.97;10406472;28;20242;-84
2023/07/01 00:11:30;;;;;;;0.40;0.30;;;;;;;23.59;100.00;100788.59;10419500;28;20061;-81
2023/07/01 00:16:32;;;;;;;0.50;0.10;;;;;;;23.33;100.00;100778.84;10420629;28;20048;-82
2023/07/01 00:21:34;;;;;;;0.25;0.25;;;;;;;23.47;100.00;100781.94;10419356;28;20064;-81
2023/07/01 00:26:36;;;;;;;0.20;0.10;;;;;;;23.77;100.00;100774.88;10419249;28;20592;-82
2023/07/01 00:31:37;;;;;;;0.32;0.22;;;;;;;23.39;100.00;100760.25;10419244;28;20069;-81
2023/07/01 00:36:39;;;;;;;0.08;0.05;;;;;;;23.90;100.00;100753.44;10418770;28;20049;-81
2023/07/01 00:41:41;;;;;;;2.92;0.40;;;;;;;23.71;100.00;100748.78;10413793;28;20059;-82
2023/07/01 00:46:43;;;;;;;0.00;0.00;;;;;;;23.55;100.00;100751.00;10435067;28;20124;-82
2023/07/01 00:51:44;;;;;;;0.90;0.20;;;;;;;23.80;100.00;100733.59;10418193;28;20048;-82
2023/07/01 00:56:46;;;;;;;0.35;0.32;;;;;;;23.24;100.00;100732.69;10417520;28;20045;-84
2023/07/01 01:01:51;;;;;;;0.43;0.25;;;;;;;23.60;100.00;100724.59;10417018;28;20048;-81
2023/07/01 01:07:00;;;;;;;0.20;0.17;;;;;;;23.57;100.00;100711.50;10401036;28;20045;-82
2023/07/01 01:12:06;;;;;;;0.00;0.00;;;;;;;23.06;100.00;100708.63;10402044;28;20042;-84
2023/07/01 01:17:13;;;;;;;1.25;1.10;;;;;;;23.28;100.00;100694.88;10414113;28;20128;-82
2023/07/01 01:22:40;;;;;;;0.47;0.32;;;;;;;23.14;100.00;100685.63;10400281;28;20037;-82
2023/07/01 01:27:56;;;;;;;0.00;0.00;;;;;;;23.09;100.00;100682.28;10414590;28;20099;-84
2023/07/01 01:32:59;;;;;;;0.30;0.30;;;;;;;23.35;100.00;100667.50;10432761;28;20288;-82
2023/07/01 01:38:14;;;;;;;1.65;1.45;;;;;;;23.56;100.00;100665.13;10415911;28;20049;-81
2023/07/01 01:43:35;;;;;;;0.63;0.63;;;;;;;23.20;100.00;100660.09;10415526;28;20041;-82
2023/07/01 01:48:39;;;;;;;0.00;0.00;;;;;;;23.20;100.00;100652.19;10402583;28;20546;-83
2023/07/01 01:53:42;;;;;;;0.10;0.03;;;;;;;23.28;100.00;100642.31;10403635;28;20546;-82
2023/07/01 01:58:47;;;;;;;0.13;0.10;;;;;;;23.10;100.00;100636.72;10399203;28;20079;-82
2023/07/01 02:03:49;;;;;;;0.30;0.20;;;;;;;22.94;100.00;100632.81;10382299;28;20409;-83
2023/07/01 02:08:51;;;;;;;2.58;0.50;;;;;;;22.67;100.00;100622.25;10431175;28;20132;-84
2023/07/01 02:13:53;;;;;;;0.00;0.00;;;;;;;23.14;100.00;100611.19;10414890;28;20068;-84
2023/07/01 02:18:54;;;;;;;0.15;0.15;;;;;;;22.87;100.00;100607.66;10414079;28;20053;-83
2023/07/01 02:23:59;;;;;;;0.00;0.00;;;;;;;22.96;100.00;100607.38;10415608;28;20575;-82
2023/07/01 02:29:01;;;;;;;0.20;0.10;;;;;;;23.10;100.00;100606.94;10414389;28;20128;-82
2023/07/01 02:34:03;;;;;;;0.15;0.10;;;;;;;22.92;100.00;100600.47;10413973;28;20049;-82
2023/07/01 02:39:05;;;;;;;0.20;0.17;;;;;;;23.24;100.00;100596.03;10398226;28;20045;-84
2023/07/01 02:44:07;;;;;;;0.45;0.10;;;;;;;23.41;100.00;100587.59;10395846;28;20064;-82
2023/07/01 02:49:09;;;;;;;0.35;0.35;;;;;;;22.92;100.00;100580.34;10403741;28;20072;-83
2023/07/01 02:54:11;;;;;;;0.30;0.20;;;;;;;22.99;100.00;100570.47;10428579;28;20042;-82
2023/07/01 02:59:12;;;;;;;0.10;0.00;;;;;;;22.94;100.00;100568.00;10421269;28;20041;-83
2023/07/01 03:04:15;;;;;;;0.30;0.30;;;;;;;22.84;100.00;100560.44;10395782;28;20049;-81
2023/07/01 03:09:21;;;;;;;0.20;0.15;;;;;;;22.73;100.00;100551.16;10403847;28;20146;-84
2023/07/01 03:14:22;;;;;;;0.15;0.15;;;;;;;22.78;100.00;100559.75;10412128;28;20087;-85
2023/07/01 03:19:24;;;;;;;0.08;0.08;;;;;;;22.96;100.00;100560.09;10394565;28;20504;-83
2023/07/01 03:24:33;;;;;;;0.00;0.00;;;;;;;22.73;100.00;100552.91;10397984;28;20045;-85
2023/07/01 03:29:35;;;;;;;0.20;0.20;;;;;;;22.62;100.00;100545.34;10394018;28;21137;-84
2023/07/01 03:34:38;;;;;;;0.08;0.08;;;;;;;22.73;100.00;100532.78;10400582;28;20092;-79
2023/07/01 03:39:40;;;;;;;0.30;0.30;;;;;;;22.91;100.00;100525.22;10399200;28;1063102;-84
2023/07/01 03:44:41;;;;;;;0.22;0.22;;;;;;;22.79;100.00;100522.06;10420247;28;20439;-85
2023/07/01 03:49:43;;;;;;;0.10;0.00;;;;;;;22.88;100.00;100520.91;10437242;28;20053;-82
2023/07/01 03:54:46;;;;;;;0.20;0.17;;;;;;;22.74;100.00;100517.88;10417123;28;20124;-83
2023/07/01 03:59:48;;;;;;;0.43;0.15;;;;;;;22.74;100.00;100508.22;10403075;28;20488;-84
2023/07/01 04:04:49;;;;;;;0.35;0.22;;;;;;;22.91;100.00;100499.81;10419429;28;20132;-84
2023/07/01 04:09:51;;;;;;;0.10;0.10;;;;;;;22.76;100.00;100501.16;10419275;28;20056;-84
2023/07/01 04:14:53;;;;;;;0.32;0.25;;;;;;;22.46;100.00;100495.94;10423978;28;20033;-82
2023/07/01 04:19:55;;;;;;;0.00;0.00;;;;;;;23.16;100.00;100492.91;10419191;28;20051;-83
2023/07/01 04:24:57;;;;;;;0.00;0.00;;;;;;;23.40;100.00;100492.13;10434738;28;20382;-83
2023/07/01 04:29:59;;;;;;;0.20;0.20;;;;;;;23.09;100.00;100493.09;10434597;28;20049;-83
2023/07/01 04:35:01;;;;;;;0.15;0.15;;;;;;;22.41;100.00;100487.34;10408039;28;20136;-85
2023/07/01 04:40:04;;;;;;;0.00;0.00;;;;;;;22.07;100.00;100490.94;10418136;28;20168;-83
2023/07/01 04:45:06;;;;;;;0.10;0.10;;;;;;;22.30;100.00;100492.03;10418339;28;20051;-83
2023/07/01 04:50:09;;;;;;;0.50;0.20;;;;;;;22.88;100.00;100483.28;10418263;28;20053;-84
2023/07/01 04:55:10;;;;;;;0.65;0.17;;;;;;;22.62;100.00;100484.97;10401025;28;20063;-84
2023/07/01 05:00:13;;;;;;;0.10;0.08;;;;;;;21.42;100.00;100491.78;10416834;28;20053;-83
2023/07/01 05:05:14;;;;;;;0.10;0.10;;;;;;;21.34;100.00;100491.97;10416878;28;20081;-83
2023/07/01 05:10:17;;;;;;;0.00;0.00;;;;;;;21.42;100.00;100490.03;10389966;28;20069;-87
2023/07/01 05:15:19;;;;;;;0.65;0.20;;;;;;;21.91;100.00;100473.91;10430004;28;20744;-87
2023/07/01 05:20:21;;;;;;;0.22;0.00;;;;;;;22.01;100.00;100471.00;10430180;28;20041;-86
2023/07/01 05:25:22;;;;;;;0.10;0.10;;;;;;;21.83;100.00;100471.50;10412898;28;20033;-87
2023/07/01 05:30:24;;;;;;;0.20;0.20;;;;;;;21.97;100.00;100474.59;10400541;28;20060;-85
2023/07/01 05:35:26;;;;;;;0.45;0.45;;;;;;;21.57;100.00;100480.94;10426282;28;20120;-87
2023/07/01 05:40:28;;;;;;;0.05;0.05;;;;;;;22.18;100.00;100477.50;10413799;28;20120;-85
2023/07/01 05:45:30;;;;;;;0.52;0.20;;;;;;;21.45;100.00;100487.34;10418727;28;20046;-87
2023/07/01 05:50:31;;;;;;;0.00;0.00;;;;;;;21.89;100.00;100475.72;10407643;28;20045;-86
2023/07/01 05:55:33;;;;;;;0.00;0.00;;;;;;;21.21;100.00;100492.28;10420812;28;20048;-85
2023/07/01 06:00:35;;;;;;;0.32;0.25;;;;;;;21.80;100.00;100482.09;10411329;28;20480;-85
2023/07/01 06:05:37;;;;;;;0.00;0.00;;;;;;;21.24;100.00;100480.88;10424206;28;20072;-86
2023/07/01 06:10:38;;;;;;;0.05;0.00;;;;;;;21.37;100.00;100466.56;10394009;28;20049;-86
2023/07/01 06:15:40;;;;;;;0.00;0.00;;;;;;;21.21;100.00;100468.72;10410657;28;20067;-86
2023/07/01 06:20:43;;;;;;;0.00;0.00;;;;;;;21.75;100.00;100465.59;10410753;28;20115;-86
2023/07/01 06:25:45;;;;;;;0.05;0.00;;;;;;;21.96;100.00;100461.53;10411959;28;20072;-85
2023/07/01 06:30:46;;;;;;;0.00;0.00;;;;;;;21.81;100.00;100463.69;10393070;28;20064;-85
2023/07/01 06:35:49;;;;;;;0.08;0.08;;;;;;;21.54;100.00;100460.88;10426955;28;20361;-86
2023/07/01 06:40:51;;;;;;;0.10;0.10;;;;;;;21.38;100.00;100460.41;10409550;28;20056;-88
2023/07/01 06:45:52;;;;;;;0.00;0.00;;;;;;;21.67;100.00;100457.97;10406696;28;20049;-86
2023/07/01 06:50:54;;;;;;;0.20;0.10;;;;;;;21.96;100.00;100454.53;10409575;28;20045;-86
2023/07/01 06:55:56;;;;;;;0.10;0.00;;;;;;;22.12;100.00;100462.81;10410052;28;20033;-86
2023/07/01 07:00:57;;;;;;;0.80;0.20;;;;;;;21.29;100.00;100465.03;10409553;28;20056;-86
2023/07/01 07:06:25;;;;;;;0.13;0.10;;;;;;;21.53;100.00;100463.53;10409482;28;20128;-85
2023/07/01 07:11:26;;;;;;;0.10;0.10;;;;;;;21.44;100.00;100459.41;10409354;28;20403;-87
2023/07/01 07:16:29;;;;;;;0.00;0.00;;;;;;;21.80;100.00;100455.88;10425593;28;20059;-87
2023/07/01 07:21:32;;;;;;;0.40;0.40;;;;;;;21.47;100.00;100453.22;10385718;28;20485;-86
2023/07/01 07:26:34;;;;;;;0.10;0.10;;;;;;;21.67;100.00;100445.69;10391772;28;20332;-86
2023/07/01 07:31:36;;;;;;;0.10;0.10;;;;;;;21.93;100.00;100440.66;10413822;28;20472;-85
2023/07/01 07:36:38;;;;;;;0.22;0.15;;;;;;;21.87;100.00;100442.53;10409661;28;20049;-85
2023/07/01 07:41:44;;;;;;;0.28;0.00;;;;;;;22.07;100.00;100438.47;10404090;28;20529;-84
2023/07/01 07:46:46;;;;;;;0.00;0.00;;;;;;;22.04;100.00;100435.94;10396625;28;20466;-84
2023/07/01 07:51:48;;;;;;;0.38;0.25;;;;;;;21.40;100.00;100437.66;10396136;28;20072;-84
2023/07/01 07:56:50;;;;;;;0.00;0.00;;;;;;;21.60;100.00;100448.53;10412199;28;20095;-84
2023/07/01 08:01:53;;;;;;;0.50;0.10;;;;;;;21.94;100.00;100437.97;10407956;28;20041;-85
2023/07/01 08:06:55;;;;;;;0.30;0.10;;;;;;;22.06;100.00;100431.50;10425172;28;20092;-89
2023/07/01 08:11:58;;;;;;;0.30;0.20;;;;;;;21.79;100.00;100434.00;10404356;28;20037;-87
2023/07/01 08:17:00;;;;;;;0.10;0.05;;;;;;;21.87;100.00;100425.94;10399361;28;20096;-85
2023/07/01 08:22:02;;;;;;;0.10;0.10;;;;;;;21.87;100.00;100426.78;10429443;28;20077;-85
2023/07/01 08:27:05;;;;;;;0.30;0.22;;;;;;;22.56;100.00;100430.03;10410017;28;20137;-85
2023/07/01 08:32:09;;;;;;;0.35;0.20;;;;;;;21.78;100.00;100421.78;10413164;28;20037;-83
2023/07/01 08:37:11;;;;;;;0.10;0.10;;;;;;;22.24;100.00;100424.84;10401208;28;20045;-82
2023/07/01 08:42:18;;;;;;;0.00;0.00;;;;;;;23.10;100.00;100426.50;10418869;28;20047;-85
2023/07/01 08:47:21;;;;;;;0.30;0.28;;;;;;;22.62;100.00;100419.34;10417824;28;20390;-84
2023/07/01 08:52:26;;;;;;;0.28;0.28;;;;;;;22.40;100.00;100420.00;10407778;28;20076;-83
2023/07/01 08:57:28;;;;;;;0.00;0.00;;;;;;;22.38;100.00;100413.91;10412752;28;20041;-84
2023/07/01 09:02:31;;;;;;;0.13;0.10;;;;;;;22.71;100.00;100419.03;10416878;28;20049;-83
2023/07/01 09:07:33;;;;;;;0.30;0.20;;;;;;;21.86;100.00;100409.34;10434311;28;20065;-83
2023/07/01 09:12:35;;;;;;;0.00;0.00;;;;;;;22.67;100.00;100406.94;10429811;28;20048;-84
2023/07/01 09:17:38;;;;;;;0.10;0.10;;;;;;;22.21;100.00;100413.59;10418616;28;20485;-82
2023/07/01 09:22:45;;;;;;;0.80;0.20;;;;;;;21.92;100.00;100413.53;10397386;28;20037;-82
2023/07/01 09:27:48;;;;;;;0.25;0.05;;;;;;;22.40;100.00;100404.25;10414585;28;20121;-83
2023/07/01 09:33:10;;;;;;;0.03;0.03;;;;;;;22.20;100.00;100402.22;10427459;28;20121;-85
2023/07/01 09:38:13;;;;;;;0.20;0.20;;;;;;;22.99;100.00;100397.09;10415397;28;20053;-85
2023/07/01 09:43:15;;;;;;;0.30;0.17;;;;;;;22.58;100.00;100391.47;10415788;28;20076;-86
2023/07/01 09:48:18;;;;;;;0.30;0.10;;;;;;;23.06;100.00;100388.09;10395230;28;20072;-86
2023/07/01 09:53:27;;;;;;;0.75;0.17;;;;;;;22.99;100.00;100391.84;10399690;28;20095;-85
2023/07/01 09:58:30;;;;;;;0.25;0.22;;;;;;;23.03;100.00;100384.72;10409731;28;20052;-86
2023/07/01 10:03:32;;;;;;;0.95;0.20;;;;;;;23.68;100.00;100383.31;10416861;28;20400;-85
2023/07/01 10:08:34;;;;;;;0.28;0.20;;;;;;;23.29;100.00;100382.09;10416853;28;20053;-87
2023/07/01 10:13:43;;;;;;;0.32;0.20;;;;;;;22.78;100.00;100383.78;10397983;28;20059;-84
2023/07/01 10:18:45;;;;;;;0.05;0.05;;;;;;;23.47;100.00;100370.97;10411931;28;20473;-84
2023/07/01 10:23:47;;;;;;;0.13;0.10;;;;;;;23.17;100.00;100373.75;10423128;28;20073;-85
2023/07/01 10:28:49;;;;;;;0.15;0.10;;;;;;;23.00;100.00;100375.19;10402686;28;20049;-86
2023/07/01 10:33:51;;;;;;;0.13;0.10;;;;;;;23.02;100.00;100364.63;10423417;28;20115;-87
2023/07/01 10:39:33;;;;;;;0.00;0.00;;;;;;;23.21;100.00;100368.38;10412098;28;20061;-84
2023/07/01 10:44:35;;;;;;;0.40;0.30;;;;;;;23.33;100.00;100369.69;10417772;28;20067;-84
2023/07/01 10:49:57;;;;;;;0.00;0.00;;;;;;;23.00;100.00;100367.31;10411162;28;20053;-85
2023/07/01 10:55:02;;;;;;;0.22;0.22;;;;;;;23.73;100.00;100362.97;10420465;28;20411;-83
2023/07/01 11:00:35;;;;;;;0.38;0.38;;;;;;;23.19;100.00;100358.81;10404391;28;20053;-84
2023/07/01 11:05:55;;;;;;;0.05;0.05;;;;;;;23.84;100.00;100359.91;10404814;28;20041;-83
2023/07/01 11:10:57;;;;;;;0.85;0.73;;;;;;;23.95;100.00;100351.66;10404598;28;20038;-83
2023/07/01 11:16:10;;;;;;;0.00;0.00;;;;;;;23.92;100.00;100351.75;10405743;28;20033;-83
2023/07/01 11:21:14;;;;;;;0.57;0.25;;;;;;;23.59;100.00;100355.59;10425157;28;20037;-83
2023/07/01 11:26:20;;;;;;;0.00;0.00;;;;;;;23.76;100.00;100349.72;10396326;28;20064;-83
2023/07/01 11:31:24;;;;;;;0.15;0.08;;;;;;;23.51;100.00;100343.63;10408209;28;20041;-84
2023/07/01 11:36:44;;;;;;;6.35;0.40;;;;;;;24.10;100.00;100346.69;10407724;28;20037;-83
2023/07/01 11:41:53;;;;;;;0.22;0.20;;;;;;;24.64;100.00;100339.28;10407517;28;20096;-82
2023/07/01 11:46:55;;;;;;;0.20;0.20;;;;;;;24.42;100.00;100340.16;10407721;28;20050;-82
2023/07/01 11:52:01;;;;;;;2.03;0.40;;;;;;;25.23;100.00;100328.88;10424827;28;20041;-82
2023/07/01 11:57:17;;;;;;;0.28;0.10;;;;;;;24.91;100.00;100339.03;10399097;28;20048;-82
2023/07/01 12:02:29;;;;;;;0.40;0.20;;;;;;;25.19;100.00;100330.78;10410373;28;20037;-82
2023/07/01 12:07:31;;;;;;;0.93;0.35;;;;;;;25.37;100.00;100325.59;10402385;28;20128;-82
2023/07/01 12:12:33;;;;;;;0.10;0.10;;;;;;;25.33;100.00;100323.13;10416910;28;20037;-83
2023/07/01 12:17:36;;;;;;;0.08;0.05;;;;;;;25.61;100.00;100328.97;10420588;28;20111;-83
2023/07/01 12:22:38;;;;;;;0.57;0.40;;;;;;;25.35;100.00;100321.25;10398371;28;20053;-83
2023/07/01 12:27:40;;;;;;;0.65;0.47;;;;;;;25.33;100.00;100320.50;10414988;28;20056;-83
2023/07/01 12:32:41;;;;;;;0.13;0.10;;;;;;;24.89;100.00;100328.59;10413656;28;20038;-83
2023/07/01 12:37:44;;;;;;;0.20;0.20;;;;;;;24.82;100.00;100327.13;10413571;28;20045;-84
2023/07/01 12:42:47;;;;;;;0.52;0.30;;;;;;;25.12;100.00;100321.44;10413843;28;20136;-84
2023/07/01 12:47:50;;;;;;;0.10;0.10;;;;;;;25.49;100.00;100318.03;10413789;28;20145;-82
2023/07/01 12:52:53;;;;;;;0.08;0.00;;;;;;;25.23;100.00;100313.91;10413572;28;20037;-84
2023/07/01 12:57:54;;;;;;;0.30;0.30;;;;;;;25.83;100.00;100312.97;10412232;28;20552;-83
2023/07/01 13:02:56;;;;;;;0.47;0.28;;;;;;;26.24;100.00;100315.44;10426799;28;20041;-84
2023/07/01 13:08:00;;;;;;;0.00;0.00;;;;;;;26.80;100.00;100302.09;10412158;28;20483;-83
2023/07/01 13:13:01;;;;;;;0.85;0.60;;;;;;;26.39;100.00;100321.72;10413973;28;20480;-83
2023/07/01 13:18:05;;;;;;;0.25;0.25;;;;;;;25.54;100.00;100325.72;10425590;28;20045;-83
2023/07/01 13:23:06;;;;;;;0.25;0.20;;;;;;;25.82;100.00;100324.44;10424418;28;20199;-86
2023/07/01 13:28:08;;;;;;;0.05;0.05;;;;;;;25.65;100.00;100331.34;10424529;28;20051;-85
2023/07/01 13:33:11;;;;;;;0.10;0.10;;;;;;;25.68;100.00;100332.16;10413120;28;20045;-85
2023/07/01 13:38:12;;;;;;;0.45;0.20;;;;;;;25.34;100.00;100340.66;10412254;28;20148;-86
2023/07/01 13:43:20;;;;;;;0.10;0.10;;;;;;;25.84;100.00;100333.16;10412119;28;20099;-86
2023/07/01 13:48:32;;;;;;;83.32;28.67;;;;;;;25.80;100.00;100336.88;10421820;28;20377;-87
2023/07/01 13:53:36;;;;;;;0.38;0.35;;;;;;;25.34;100.00;100351.22;10392903;28;20554;-86
2023/07/01 13:58:45;;;;;;;0.47;0.40;;;;;;;25.80;100.00;100350.06;10418877;28;20045;-84
2023/07/01 14:03:51;;;;;;;0.20;0.10;;;;;;;25.98;100.00;100351.81;10409267;28;20080;-85
2023/07/01 14:08:53;;;;;;;0.47;0.35;;;;;;;25.52;100.00;100348.69;10428950;28;20496;-85
2023/07/01 14:13:57;;;;;;;0.57;0.32;;;;;;;25.51;100.00;100357.50;10411032;28;20521;-85
2023/07/01 14:18:58;;;;;;;0.32;0.28;;;;;;;25.61;100.00;100364.09;10411222;28;20413;-85
2023/07/01 14:24:04;;;;;;;0.22;0.13;;;;;;;25.40;100.00;100365.06;10414377;28;20065;-85
2023/07/01 14:29:06;;;;;;;1.13;0.80;;;;;;;24.96;100.00;100377.47;10394975;28;20650;-88
2023/07/01 14:34:08;;;;;;;0.47;0.40;;;;;;;25.66;100.00;100372.63;10427079;28;20061;-85
2023/07/01 14:39:10;;;;;;;0.30;0.30;;;;;;;25.38;100.00;100364.22;10395409;28;20523;-85
2023/07/01 14:44:20;;;;;;;0.73;0.50;;;;;;;25.02;100.00;100382.47;10422502;28;20132;-83
2023/07/01 14:49:21;;;;;;;0.60;0.38;;;;;;;25.00;100.00;100389.56;10408978;28;20069;-85
2023/07/01 14:54:23;;;;;;;0.20;0.20;;;;;;;25.95;100.00;100380.13;10430372;28;20095;-82
2023/07/01 14:59:25;;;;;;;0.32;0.32;;;;;;;24.86;100.00;100391.94;10414585;28;20512;-86
2023/07/01 15:04:26;;;;;;;0.17;0.17;;;;;;;25.08;100.00;100396.28;10415009;28;20041;-84
2023/07/01 15:09:28;;;;;;;0.20;0.20;;;;;;;24.89;100.00;100401.47;10430796;28;20049;-83
2023/07/01 15:14:30;;;;;;;1.58;0.63;;;;;;;25.16;100.00;100404.72;10430270;28;20503;-84
2023/07/01 15:19:31;;;;;;;0.52;0.25;;;;;;;25.88;100.00;100398.03;10411462;28;20378;-82
2023/07/01 15:24:33;;;;;;;0.90;0.30;;;;;;;25.65;100.00;100399.09;10429699;28;20477;-84
2023/07/01 15:29:35;;;;;;;1.20;0.45;;;;;;;25.69;100.00;100399.81;10420894;28;20041;-83
2023/07/01 15:34:36;;;;;;;0.28;0.20;;;;;;;26.24;100.00;100410.47;10421597;28;20124;-83
2023/07/01 15:39:38;;;;;;;0.10;0.10;;;;;;;25.85;100.00;100398.19;10404607;28;20132;-84
2023/07/01 15:44:40;;;;;;;0.65;0.35;;;;;;;25.62;100.00;100408.00;10420478;28;20041;-82
2023/07/01 15:49:41;;;;;;;0.10;0.10;;;;;;;24.27;100.00;100439.03;10400447;28;20567;-83
2023/07/01 15:54:43;;;;;;;0.65;0.32;;;;;;;24.33;100.00;100441.41;10422023;28;20041;-84
2023/07/01 15:59:47;;;;;;;0.20;0.17;;;;;;;24.68;100.00;100440.97;10404477;28;20057;-84
2023/07/01 16:04:49;;;;;;;0.00;0.00;;;;;;;24.98;100.00;100438.00;10404381;28;20124;-83
2023/07/01 16:09:56;;;;;;;0.22;0.20;;;;;;;25.72;100.00;100423.44;10420986;28;20045;-84
2023/07/01 16:15:01;;;;;;;0.00;0.00;;;;;;;25.58;100.00;100432.78;10420630;28;20099;-83
2023/07/01 16:20:23;;;;;;;1.00;0.20;;;;;;;24.87;100.00;100452.44;10403906;28;20128;-85
2023/07/01 16:25:25;;;;;;;0.57;0.30;;;;;;;25.51;100.00;100460.38;10419965;28;20125;-84
2023/07/01 16:30:27;;;;;;;1.42;0.93;;;;;;;25.26;100.00;100455.25;10403080;28;21426;-84
2023/07/01 16:35:40;;;;;;;0.55;0.22;;;;;;;25.72;100.00;100460.38;10419359;28;20051;-82
2023/07/01 16:40:47;;;;;;;0.10;0.10;;;;;;;25.60;100.00;100457.31;10418678;28;20041;-83
2023/07/01 16:45:49;;;;;;;0.15;0.10;;;;;;;25.40;100.00;100467.91;10419110;28;20045;-85
2023/07/01 16:50:55;;;;;;;0.28;0.28;;;;;;;25.37;100.00;100465.34;10418751;28;20065;-83
2023/07/01 16:55:58;;;;;;;0.00;0.00;;;;;;;24.92;100.00;100473.34;10418963;28;20103;-82
2023/07/01 17:01:05;;;;;;;0.00;0.00;;;;;;;24.22;100.00;100480.47;10418663;28;20444;-85
2023/07/01 17:06:44;;;;;;;0.10;0.10;;;;;;;24.88;100.00;100469.13;10409033;28;20099;-82
2023/07/01 17:11:47;;;;;;;0.00;0.00;;;;;;;24.66;100.00;100479.63;10408676;28;20065;-82
2023/07/01 17:16:48;;;;;;;0.00;0.00;;;;;;;25.40;100.00;100481.06;10428985;28;20045;-84
2023/07/01 17:21:50;;;;;;;0.05;0.05;;;;;;;25.25;100.00;100477.28;10422495;28;20450;-83
2023/07/01 17:26:52;;;;;;;0.00;0.00;;;;;;;25.39;100.00;100484.63;10400926;28;20049;-83
2023/07/01 17:31:54;;;;;;;0.00;0.00;;;;;;;25.91;100.00;100492.91;10416380;28;20123;-83
2023/07/01 17:36:55;;;;;;;0.10;0.10;;;;;;;25.29;100.00;100500.81;10433031;28;20045;-83
2023/07/01 17:41:57;;;;;;;0.20;0.20;;;;;;;25.27;100.00;100497.41;10406443;28;20056;-84
2023/07/01 17:46:59;;;;;;;0.10;0.00;;;;;;;24.95;100.00;100506.63;10417724;28;20037;-83
2023/07/01 17:52:00;;;;;;;0.10;0.10;;;;;;;25.50;100.00;100508.78;10415564;28;20148;-83
2023/07/01 17:57:04;;;;;;;0.10;0.05;;;;;;;25.13;100.00;100516.41;10433214;28;20051;-82
2023/07/01 18:02:06;;;;;;;0.50;0.35;;;;;;;24.18;100.00;100523.59;10416545;28;20068;-87
2023/07/01 18:07:08;;;;;;;0.15;0.15;;;;;;;24.99;100.00;100513.50;10398344;28;20129;-82
2023/07/01 18:12:11;;;;;;;0.05;0.05;;;;;;;25.17;100.00;100517.16;10415944;28;20084;-82
2023/07/01 18:17:13;;;;;;;0.82;0.28;;;;;;;24.89;100.00;100518.28;10415312;28;20160;-82
2023/07/01 18:22:15;;;;;;;2.15;0.57;;;;;;;25.65;100.00;100521.28;10415317;28;20049;-81
2023/07/01 18:27:16;;;;;;;0.30;0.28;;;;;;;25.92;100.00;100513.09;10412224;28;20535;-81
2023/07/01 18:32:18;;;;;;;0.55;0.20;;;;;;;25.33;100.00;100527.91;10399725;28;20057;-81
2023/07/01 18:37:20;;;;;;;0.10;0.10;;;;;;;25.96;100.00;100527.00;10405667;28;20141;-81
2023/07/01 18:42:22;;;;;;;0.00;0.00;;;;;;;25.62;100.00;100529.34;10395936;28;20042;-82
2023/07/01 18:47:23;;;;;;;0.47;0.20;;;;;;;25.68;100.00;100522.09;10429596;28;20045;-82
2023/07/01 18:52:25;;;;;;;0.50;0.20;;;;;;;25.28;100.00;100528.09;10396890;28;20533;-82
2023/07/01 18:57:27;;;;;;;0.15;0.15;;;;;;;25.41;100.00;100519.72;10437737;28;20037;-81
2023/07/01 19:02:29;;;;;;;0.10;0.10;;;;;;;25.46;100.00;100528.28;10445611;28;20045;-82
2023/07/01 19:07:30;;;;;;;0.52;0.30;;;;;;;25.11;100.00;100538.50;10413418;28;20037;-82
2023/07/01 19:12:32;;;;;;;0.10;0.10;;;;;;;25.52;100.00;100538.56;10412443;28;20045;-81
2023/07/01 19:17:35;;;;;;;0.30;0.17;;;;;;;25.45;100.00;100547.66;10427631;28;20041;-81
2023/07/01 19:22:37;;;;;;;0.45;0.30;;;;;;;25.48;100.00;100550.19;10411605;28;20053;-82
2023/07/01 19:27:39;;;;;;;0.00;0.00;;;;;;;25.27;100.00;100544.84;10428748;28;20042;-82
2023/07/01 19:32:41;;;;;;;0.20;0.20;;;;;;;25.29;100.00;100553.53;10412267;28;20144;-82
2023/07/01 19:37:42;;;;;;;0.03;0.03;;;;;;;24.94;100.00;100573.44;10412408;28;20065;-82
2023/07/01 19:42:44;;;;;;;0.40;0.40;;;;;;;25.27;100.00;100567.72;10412490;28;20038;-82
2023/07/01 19:47:47;;;;;;;0.65;0.25;;;;;;;25.07;100.00;100584.31;10428555;28;20038;-82
2023/07/01 19:52:49;;;;;;;0.03;0.00;;;;;;;25.30;100.00;100586.91;10391402;28;20095;-82
2023/07/01 19:57:50;;;;;;;0.15;0.13;;;;;;;25.44;100.00;100593.41;10420635;28;20419;-82
2023/07/01 20:02:52;;;;;;;0.40;0.10;;;;;;;25.27;100.00;100594.94;10411967;28;20049;-82
2023/07/01 20:07:54;;;;;;;0.25;0.20;;;;;;;25.31;100.00;100600.94;10410831;28;20053;-81
2023/07/01 20:13:04;;;;;;;0.05;0.05;;;;;;;25.23;100.00;100614.44;10428368;28;20526;-82
2023/07/01 20:18:06;;;;;;;0.30;0.10;;;;;;;25.14;100.00;100620.06;10436234;28;20052;-82
2023/07/01 20:23:08;;;;;;;0.35;0.32;;;;;;;24.98;100.00;100619.81;10419708;28;20052;-82
2023/07/01 20:28:10;;;;;;;0.32;0.22;;;;;;;24.45;100.00;100621.75;10443456;28;20045;-82
2023/07/01 20:33:12;;;;;;;0.52;0.40;;;;;;;24.43;100.00;100626.19;10402806;28;20507;-82
2023/07/01 20:38:13;;;;;;;0.32;0.32;;;;;;;24.48;100.00;100639.19;10419350;28;20161;-82
2023/07/01 20:43:15;;;;;;;0.43;0.28;;;;;;;24.33;100.00;100641.47;10412232;28;20053;-82
2023/07/01 20:48:16;;;;;;;0.30;0.20;;;;;;;24.67;100.00;100645.56;10416306;28;20400;-81
2023/07/01 20:53:18;;;;;;;0.10;0.10;;;;;;;24.62;100.00;100644.81;10418779;28;20123;-86
2023/07/01 20:58:20;;;;;;;0.13;0.13;;;;;;;24.71;100.00;100643.69;10421930;28;20050;-82
2023/07/01 21:03:21;;;;;;;0.00;0.00;;;;;;;24.65;100.00;100651.75;10410880;28;20137;-81
2023/07/01 21:08:23;;;;;;;0.00;0.00;;;;;;;24.62;100.00;100655.34;10433697;28;20099;-82
2023/07/01 21:13:25;;;;;;;0.20;0.10;;;;;;;24.71;100.00;100662.97;10417386;28;20488;-82
2023/07/01 21:18:26;;;;;;;0.25;0.20;;;;;;;24.33;100.00;100670.44;10443578;28;20045;-82
2023/07/01 21:23:28;;;;;;;0.30;0.10;;;;;;;24.36;100.00;100665.06;10402776;28;20140;-82
2023/07/01 21:28:30;;;;;;;0.00;0.00;;;;;;;23.79;100.00;100671.41;10423599;28;20041;-82
2023/07/01 21:33:32;;;;;;;0.13;0.13;;;;;;;24.21;100.00;100660.34;10416936;28;20045;-82
2023/07/01 21:38:34;;;;;;;0.00;0.00;;;;;;;24.04;100.00;100663.56;10416406;28;20046;-82
2023/07/01 21:43:36;;;;;;;0.00;0.00;;;;;;;23.90;100.00;100669.25;10416527;28;20053;-82
2023/07/01 21:48:38;;;;;;;0.73;0.20;;;;;;;24.18;100.00;100663.06;10403253;28;20057;-82
2023/07/01 21:53:48;;;;;;;0.00;0.00;;;;;;;24.12;100.00;100672.06;10404363;28;20045;-82
2023/07/01 21:58:55;;;;;;;0.00;0.00;;;;;;;24.23;100.00;100676.97;10432109;28;20053;-82
2023/07/01 22:03:59;;;;;;;0.93;0.40;;;;;;;24.14;100.00;100672.00;10415490;28;20045;-82
2023/07/01 22:09:01;;;;;;;0.40;0.30;;;;;;;24.20;100.00;100677.91;10398963;28;20049;-82
2023/07/01 22:14:04;;;;;;;0.13;0.10;;;;;;;24.50;100.00;100680.38;10431254;28;20120;-82
2023/07/01 22:19:06;;;;;;;0.20;0.00;;;;;;;23.92;100.00;100670.91;10409303;28;20061;-82
2023/07/01 22:24:07;;;;;;;0.10;0.03;;;;;;;23.98;100.00;100664.63;10407903;28;20052;-81
2023/07/01 22:29:09;;;;;;;0.10;0.10;;;;;;;24.02;100.00;100674.13;10413476;28;20049;-82
2023/07/01 22:34:10;;;;;;;0.10;0.10;;;;;;;23.99;100.00;100668.09;10413569;28;20519;-82
2023/07/01 22:39:12;;;;;;;0.00;0.00;;;;;;;23.49;100.00;100660.97;10429031;28;20071;-82
2023/07/01 22:44:13;;;;;;;0.25;0.20;;;;;;;23.38;100.00;100656.91;10412493;28;20040;-82
2023/07/01 22:49:15;;;;;;;0.10;0.00;;;;;;;23.32;100.00;100654.47;10412868;28;20183;-82
2023/07/01 22:54:17;;;;;;;0.00;0.00;;;;;;;24.08;100.00;100663.41;10390771;28;20038;-82
2023/07/01 22:59:18;;;;;;;0.47;0.17;;;;;;;24.13;100.00;100660.59;10412333;28;20049;-82